Terminal Aerodrome Forecast
Issued by NWS Wakefield, VA

Current Version | Previous Version | Text Only | Print | Product List | Glossary On
Versions: 1 2 3 4 5 6 7 8 9 10 11 12 13 14 15 16 17
000
FTUS41 KAKQ 261434 AAA
TAFORF
TAF AMD
KORF 261434Z 2615/2712 06008KT P6SM SCT025 SCT035
      TEMPO 2615/2617 BKN025
     FM262300 13005KT P6SM SKC=

USA.gov is the U.S. government's official web portal to all federal, state and local government web resources and services.